createdAt,value
2023-04-17T00:02:04.651Z,102241.00
2023-04-17T00:04:33.020Z,102232.94
2023-04-17T00:07:03.574Z,102242.78
2023-04-17T00:09:31.487Z,102241.09
2023-04-17T00:11:59.423Z,102232.97
2023-04-17T00:14:27.629Z,102232.81
2023-04-17T00:16:55.398Z,102233.69
2023-04-17T00:19:23.330Z,102240.88
2023-04-17T00:21:51.148Z,102234.63
2023-04-17T00:24:20.277Z,102234.59
2023-04-17T00:26:48.017Z,102229.34
2023-04-17T00:29:15.801Z,102241.72
2023-04-17T00:31:43.579Z,102236.38
2023-04-17T00:34:11.557Z,102245.38
2023-04-17T00:36:39.335Z,102239.06
2023-04-17T00:39:07.069Z,102239.16
2023-04-17T00:41:36.464Z,102240.84
2023-04-17T00:44:04.208Z,102242.63
2023-04-17T00:46:32.383Z,102233.66
2023-04-17T00:49:01.048Z,102238.06
2023-04-17T00:51:29.133Z,102235.31
2023-04-17T00:53:57.217Z,102238.88
2023-04-17T00:56:26.143Z,102229.94
2023-04-17T00:58:56.744Z,102237.03
2023-04-17T01:01:24.501Z,102233.47
2023-04-17T01:03:52.323Z,102236.88
2023-04-17T01:06:20.657Z,102232.44
2023-04-17T01:08:48.453Z,102236.06
2023-04-17T01:11:16.128Z,102230.72
2023-04-17T01:13:47.301Z,102230.53
2023-04-17T01:16:16.827Z,102229.59
2023-04-17T01:18:44.941Z,102233.28
2023-04-17T01:21:12.999Z,102235.13
2023-04-17T01:23:46.333Z,102228.97
2023-04-17T01:26:18.704Z,102233.28
2023-04-17T01:28:51.703Z,102241.53
2023-04-17T01:31:19.485Z,102242.16
2023-04-17T01:33:47.463Z,102238.63
2023-04-17T01:36:15.341Z,102244.91
2023-04-17T01:38:43.410Z,102238.69
2023-04-17T01:41:11.192Z,102235.16
2023-04-17T01:43:42.286Z,102239.72
2023-04-17T01:46:10.131Z,102240.56
2023-04-17T01:48:38.316Z,102237.91
2023-04-17T01:51:07.052Z,102242.31
2023-04-17T01:53:35.710Z,102242.28
2023-04-17T01:56:03.696Z,102236.91
2023-04-17T01:58:31.857Z,102242.91
2023-04-17T02:01:01.367Z,102241.13
2023-04-17T02:03:29.314Z,102240.22
2023-04-17T02:05:57.164Z,102241.00
2023-04-17T02:08:25.317Z,102240.03
2023-04-17T02:10:53.168Z,102249.88
2023-04-17T02:13:20.997Z,102241.78
2023-04-17T02:15:48.912Z,102245.38
2023-04-17T02:18:18.204Z,102254.31
2023-04-17T02:20:45.897Z,102241.66
2023-04-17T02:23:13.701Z,102242.56
2023-04-17T02:25:42.009Z,102247.81
2023-04-17T02:28:09.810Z,102253.25
2023-04-17T02:30:37.833Z,102249.63
2023-04-17T02:33:05.637Z,102246.97
2023-04-17T02:35:35.004Z,102247.84
2023-04-17T02:38:02.706Z,102249.69
2023-04-17T02:40:30.531Z,102248.81
2023-04-17T02:42:58.290Z,102244.38
2023-04-17T02:45:26.193Z,102259.59
2023-04-17T02:47:53.947Z,102253.41
2023-04-17T02:50:21.967Z,102262.34
2023-04-17T02:52:51.101Z,102256.94
2023-04-17T02:55:19.470Z,102255.09
2023-04-17T02:57:47.250Z,102264.09
2023-04-17T03:00:15.434Z,102257.75
2023-04-17T03:02:43.415Z,102257.69
2023-04-17T03:05:12.018Z,102255.88
2023-04-17T03:07:39.778Z,102262.22
2023-04-17T03:10:10.099Z,102254.25
2023-04-17T03:12:38.273Z,102261.41
2023-04-17T03:15:08.867Z,102257.91
2023-04-17T03:17:36.940Z,102259.66
2023-04-17T03:20:07.405Z,102264.03
2023-04-17T03:22:35.527Z,102259.63
2023-04-17T03:25:03.492Z,102258.53
2023-04-17T03:27:32.669Z,102273.53
2023-04-17T03:30:00.540Z,102263.72
2023-04-17T03:32:28.608Z,102261.91
2023-04-17T03:34:56.451Z,102267.38
2023-04-17T03:37:24.153Z,102264.78
2023-04-17T03:39:52.036Z,102262.19
2023-04-17T03:42:19.827Z,102263.16
2023-04-17T03:44:48.977Z,102267.66
2023-04-17T03:47:16.777Z,102262.25
2023-04-17T03:49:44.524Z,102260.31
2023-04-17T03:52:12.388Z,102265.84
2023-04-17T03:54:40.194Z,102261.31
2023-04-17T03:57:07.919Z,102255.94
2023-04-17T03:59:36.002Z,102264.81
2023-04-17T04:02:05.389Z,102269.22
2023-04-17T04:04:33.846Z,102273.59
2023-04-17T04:07:01.948Z,102270.03
2023-04-17T04:09:29.658Z,102269.72
2023-04-17T04:11:57.444Z,102276.00
2023-04-17T04:14:25.385Z,102275.09
2023-04-17T04:16:53.262Z,102275.16
2023-04-17T04:19:22.587Z,102270.66
2023-04-17T04:21:50.354Z,102276.81
2023-04-17T04:24:20.286Z,102278.53
2023-04-17T04:26:49.678Z,102286.50
2023-04-17T04:29:17.982Z,102283.81
2023-04-17T04:31:46.611Z,102288.22
2023-04-17T04:34:16.885Z,102291.66
2023-04-17T04:36:50.060Z,102299.78
2023-04-17T04:39:20.561Z,102297.22
2023-04-17T04:41:48.324Z,102298.16
2023-04-17T04:44:16.061Z,102298.00
2023-04-17T04:46:43.851Z,102302.47
2023-04-17T04:49:12.248Z,102303.41
2023-04-17T04:51:40.956Z,102299.91
2023-04-17T04:54:10.706Z,102299.91
2023-04-17T04:56:38.548Z,102307.13
2023-04-17T04:59:06.252Z,102309.88
2023-04-17T05:01:34.398Z,102315.22
2023-04-17T05:04:02.359Z,102311.59
2023-04-17T05:06:31.251Z,102314.31
2023-04-17T05:08:59.002Z,102318.75
2023-04-17T05:11:28.295Z,102314.38
2023-04-17T05:13:56.089Z,102318.88
2023-04-17T05:16:23.963Z,102314.59
2023-04-17T05:18:51.964Z,102320.81
2023-04-17T05:21:19.916Z,102321.72
2023-04-17T05:23:47.666Z,102316.28
2023-04-17T05:26:15.524Z,102317.25
2023-04-17T05:28:45.756Z,102318.16
2023-04-17T05:31:13.705Z,102320.81
2023-04-17T05:33:41.685Z,102320.78
2023-04-17T05:36:10.368Z,102318.13
2023-04-17T05:38:38.381Z,102326.97
2023-04-17T05:41:07.609Z,102329.78
2023-04-17T05:43:36.515Z,102328.00
2023-04-17T05:46:06.348Z,102327.97
2023-04-17T05:48:34.203Z,102331.50
2023-04-17T05:51:02.332Z,102331.50
2023-04-17T05:53:31.136Z,102327.13
2023-04-17T05:55:59.185Z,102326.16
2023-04-17T05:58:26.936Z,102329.06
2023-04-17T06:00:54.782Z,102333.63
2023-04-17T06:03:24.740Z,102337.22
2023-04-17T06:05:52.827Z,102334.56
2023-04-17T06:08:20.734Z,102328.34
2023-04-17T06:10:50.226Z,102333.59
2023-04-17T06:13:17.967Z,102338.78
2023-04-17T06:15:46.086Z,102338.78
2023-04-17T06:18:16.140Z,102343.16
2023-04-17T06:20:45.614Z,102335.16
2023-04-17T06:23:13.644Z,102343.34
2023-04-17T06:25:41.461Z,102361.28
2023-04-17T06:28:09.367Z,102341.78
2023-04-17T06:30:37.410Z,102348.03
2023-04-17T06:33:05.361Z,102347.06
2023-04-17T06:35:33.914Z,102356.88
2023-04-17T06:38:03.366Z,102353.38
2023-04-17T06:40:31.142Z,102358.75
2023-04-17T06:42:58.970Z,102358.00
2023-04-17T06:45:26.843Z,102364.19
2023-04-17T06:47:54.636Z,102368.72
2023-04-17T06:50:23.286Z,102367.84
2023-04-17T06:52:51.326Z,102374.13
2023-04-17T06:55:20.823Z,102372.47
2023-04-17T06:57:48.622Z,102378.53
2023-04-17T07:00:18.822Z,102377.66
2023-04-17T07:02:47.174Z,102379.59
2023-04-17T07:05:15.033Z,102382.44
2023-04-17T07:07:42.815Z,102377.84
2023-04-17T07:10:11.180Z,102373.53
2023-04-17T07:12:40.526Z,102387.09
2023-04-17T07:15:09.500Z,102385.31
2023-04-17T07:17:37.386Z,102393.44
2023-04-17T07:20:07.316Z,102399.81
2023-04-17T07:22:35.437Z,102397.09
2023-04-17T07:25:03.874Z,102395.97
2023-04-17T07:27:31.681Z,102396.06
2023-04-17T07:30:00.967Z,102404.31
2023-04-17T07:32:29.653Z,102403.22
2023-04-17T07:34:57.393Z,102407.84
2023-04-17T07:37:25.632Z,102407.03
2023-04-17T07:39:54.644Z,102417.59
2023-04-17T07:42:22.363Z,102418.47
2023-04-17T07:44:55.207Z,102411.28
2023-04-17T07:47:24.398Z,102420.31
2023-04-17T07:49:52.358Z,102421.22
2023-04-17T07:52:20.174Z,102415.88
2023-04-17T07:54:48.098Z,102418.75
2023-04-17T07:57:18.065Z,102414.38
2023-04-17T07:59:46.779Z,102422.38
2023-04-17T08:02:15.956Z,102429.47
2023-04-17T08:04:45.630Z,102422.47
2023-04-17T08:07:14.541Z,102426.03
2023-04-17T08:09:43.858Z,102431.44
2023-04-17T08:12:11.931Z,102424.41
2023-04-17T08:14:40.771Z,102428.81
2023-04-17T08:17:09.008Z,102432.53
2023-04-17T08:19:36.891Z,102438.06
2023-04-17T08:22:07.688Z,102430.94
2023-04-17T08:24:35.653Z,102441.00
2023-04-17T08:27:03.805Z,102434.66
2023-04-17T08:29:31.660Z,102435.44
2023-04-17T08:32:13.332Z,102429.91
2023-04-17T08:34:42.846Z,102438.09
2023-04-17T08:37:12.354Z,102431.22
2023-04-17T08:39:40.844Z,102437.66
2023-04-17T08:42:13.329Z,102434.28
2023-04-17T08:44:44.878Z,102445.16
2023-04-17T08:47:13.953Z,102440.88
2023-04-17T08:49:44.114Z,102440.06
2023-04-17T08:52:14.499Z,102441.97
2023-04-17T08:54:42.401Z,102440.31
2023-04-17T08:57:10.306Z,102441.34
2023-04-17T08:59:38.674Z,102438.66
2023-04-17T09:02:08.361Z,102443.16
2023-04-17T09:04:38.305Z,102443.16
2023-04-17T09:07:06.950Z,102442.22
2023-04-17T09:09:52.942Z,102448.56
2023-04-17T09:12:21.624Z,102445.88
2023-04-17T09:14:49.551Z,102451.34
2023-04-17T09:17:18.986Z,102455.00
2023-04-17T09:20:06.609Z,102447.88
2023-04-17T09:22:35.715Z,102447.81
2023-04-17T09:25:05.875Z,102448.72
2023-04-17T09:27:33.988Z,102453.19
2023-04-17T09:30:04.085Z,102452.34
2023-04-17T09:32:33.420Z,102451.47
2023-04-17T09:35:03.700Z,102454.16
2023-04-17T09:37:50.017Z,102450.59
2023-04-17T09:40:20.427Z,102449.75
2023-04-17T09:42:59.148Z,102448.91
2023-04-17T09:45:33.352Z,102446.22
2023-04-17T09:48:01.475Z,102448.91
2023-04-17T09:50:29.942Z,102453.47
2023-04-17T09:52:58.811Z,102439.09
2023-04-17T09:55:30.212Z,102448.06
2023-04-17T09:58:00.005Z,102445.34
2023-04-17T10:00:29.405Z,102444.47
2023-04-17T10:02:59.186Z,102450.72
2023-04-17T10:05:29.291Z,102453.41
2023-04-17T10:07:57.376Z,102442.69
2023-04-17T10:10:30.355Z,102433.75
2023-04-17T10:13:01.741Z,102436.44
2023-04-17T10:15:30.819Z,102434.69
2023-04-17T10:18:20.826Z,102432.00
2023-04-17T10:20:50.265Z,102440.06
2023-04-17T10:23:30.468Z,102426.59
2023-04-17T10:26:46.597Z,102428.41
2023-04-17T10:29:18.637Z,102424.81
2023-04-17T10:32:26.133Z,102433.81
2023-04-17T10:34:56.185Z,102429.31
2023-04-17T10:38:02.970Z,102419.47
2023-04-17T10:40:32.550Z,102420.31
2023-04-17T10:43:05.462Z,102414.94
2023-04-17T10:45:58.547Z,102423.88
2023-04-17T10:48:33.299Z,102415.72
2023-04-17T10:51:02.490Z,102413.00
2023-04-17T10:53:44.972Z,102412.09
2023-04-17T10:56:18.820Z,102411.13
2023-04-17T10:59:08.152Z,102402.03
2023-04-17T11:01:41.478Z,102407.41
2023-04-17T11:04:11.532Z,102407.41
2023-04-17T11:06:42.242Z,102417.41
2023-04-17T11:09:11.892Z,102400.38
2023-04-17T11:11:44.765Z,102400.38
2023-04-17T11:14:16.615Z,102411.16
2023-04-17T11:16:47.216Z,102399.44
2023-04-17T11:19:19.911Z,102403.06
2023-04-17T11:21:49.970Z,102409.25
2023-04-17T11:24:23.961Z,102407.38
2023-04-17T11:26:51.833Z,102403.69
2023-04-17T11:29:20.890Z,102405.38
2023-04-17T11:31:51.897Z,102397.25
2023-04-17T11:34:20.463Z,102392.66
2023-04-17T11:36:51.812Z,102399.75
2023-04-17T11:39:20.299Z,102404.31
2023-04-17T11:41:48.183Z,102399.81
2023-04-17T11:44:18.070Z,102411.81
2023-04-17T11:46:52.342Z,102404.75
2023-04-17T11:49:25.451Z,102402.84
2023-04-17T11:51:56.743Z,102392.94
2023-04-17T11:54:28.031Z,102400.19
2023-04-17T11:57:01.334Z,102389.44
2023-04-17T11:59:33.421Z,102401.22
2023-04-17T12:02:03.900Z,102398.53
2023-04-17T12:04:35.245Z,102393.97
2023-04-17T12:07:03.834Z,102395.72
2023-04-17T12:09:32.669Z,102396.56
2023-04-17T12:12:01.378Z,102399.19
2023-04-17T12:14:29.260Z,102393.63
2023-04-17T12:16:57.096Z,102391.81
2023-04-17T12:19:27.972Z,102383.56
2023-04-17T12:21:55.849Z,102389.75
2023-04-17T12:24:25.103Z,102387.94
2023-04-17T12:26:53.714Z,102395.97
2023-04-17T12:29:29.471Z,102383.56
2023-04-17T12:32:04.881Z,102391.63
2023-04-17T12:34:34.434Z,102389.81
2023-04-17T12:37:02.315Z,102377.34
2023-04-17T12:39:30.143Z,102385.31
2023-04-17T12:41:57.936Z,102377.34
2023-04-17T12:44:25.773Z,102384.34
2023-04-17T12:46:53.693Z,102389.59
2023-04-17T12:49:23.740Z,102389.44
2023-04-17T12:51:53.148Z,102382.19
2023-04-17T12:54:21.029Z,102379.53
2023-04-17T12:56:48.893Z,102370.69
2023-04-17T12:59:17.871Z,102370.72
2023-04-17T13:01:45.763Z,102376.03
2023-04-17T13:04:14.195Z,102375.84
2023-04-17T13:06:42.916Z,102369.25
2023-04-17T13:09:12.465Z,102372.78
2023-04-17T13:11:40.512Z,102369.19
2023-04-17T13:14:09.499Z,102362.81
2023-04-17T13:16:37.448Z,102354.56
2023-04-17T13:19:05.430Z,102357.97
2023-04-17T13:21:33.286Z,102355.19
2023-04-17T13:24:01.140Z,102353.31
2023-04-17T13:26:30.661Z,102358.59
2023-04-17T13:28:58.476Z,102361.38
2023-04-17T13:31:27.698Z,102353.19
2023-04-17T13:33:55.615Z,102344.88
2023-04-17T13:36:24.315Z,102353.72
2023-04-17T13:38:52.126Z,102346.63
2023-04-17T13:41:20.117Z,102346.06
2023-04-17T13:43:49.340Z,102351.88
2023-04-17T13:46:17.350Z,102350.28
2023-04-17T13:48:45.308Z,102356.66
2023-04-17T13:51:13.331Z,102353.97
2023-04-17T13:53:41.543Z,102346.78
2023-04-17T13:56:10.243Z,102340.78
2023-04-17T13:58:38.287Z,102342.44
2023-04-17T14:01:09.027Z,102334.88
2023-04-17T14:03:40.117Z,102340.00
2023-04-17T14:06:09.442Z,102337.44
2023-04-17T14:08:37.575Z,102328.63
2023-04-17T14:11:05.435Z,102335.81
2023-04-17T14:13:39.602Z,102338.72
2023-04-17T14:16:34.765Z,102335.16
2023-04-17T14:19:12.516Z,102339.94
2023-04-17T14:21:41.715Z,102334.66
2023-04-17T14:24:09.744Z,102335.56
2023-04-17T14:26:38.626Z,102325.47
2023-04-17T14:29:06.631Z,102320.88
2023-04-17T14:31:36.028Z,102327.00
2023-04-17T14:34:04.120Z,102306.97
2023-04-17T14:36:31.985Z,102321.16
2023-04-17T14:39:00.213Z,102331.50
2023-04-17T14:41:31.049Z,102329.19
2023-04-17T14:44:00.655Z,102318.63
2023-04-17T14:46:29.001Z,102317.84
2023-04-17T14:48:58.668Z,102312.47
2023-04-17T14:51:27.399Z,102305.22
2023-04-17T14:53:56.482Z,102316.84
2023-04-17T14:56:24.439Z,102312.25
2023-04-17T14:58:52.414Z,102313.03
2023-04-17T15:01:20.895Z,102311.13
2023-04-17T15:03:49.343Z,102311.00
2023-04-17T15:06:19.094Z,102298.28
2023-04-17T15:08:47.208Z,102295.50
2023-04-17T15:11:15.982Z,102300.81
2023-04-17T15:13:44.470Z,102299.97
2023-04-17T15:16:12.721Z,102303.72
2023-04-17T15:18:41.020Z,102303.81
2023-04-17T15:21:09.459Z,102300.09
2023-04-17T15:23:38.869Z,102301.84
2023-04-17T15:26:06.951Z,102296.72
2023-04-17T15:28:35.234Z,102298.91
2023-04-17T15:31:03.347Z,102294.53
2023-04-17T15:33:31.467Z,102295.41
2023-04-17T15:36:00.366Z,102299.09
2023-04-17T15:38:29.041Z,102294.66
2023-04-17T15:40:59.096Z,102288.25
2023-04-17T15:43:27.638Z,102283.50
2023-04-17T15:45:56.148Z,102286.69
2023-04-17T15:48:24.526Z,102283.94
2023-04-17T15:50:52.554Z,102285.66
2023-04-17T15:53:20.404Z,102281.25
2023-04-17T15:55:48.515Z,102278.66
2023-04-17T15:58:18.013Z,102286.16
2023-04-17T16:00:46.097Z,102288.09
2023-04-17T16:03:14.845Z,102287.31
2023-04-17T16:05:43.131Z,102289.38
2023-04-17T16:08:11.311Z,102286.63
2023-04-17T16:10:39.566Z,102282.03
2023-04-17T16:13:07.516Z,102273.75
2023-04-17T16:15:36.920Z,102281.78
2023-04-17T16:18:05.421Z,102270.94
2023-04-17T16:20:33.399Z,102262.78
2023-04-17T16:23:01.267Z,102278.13
2023-04-17T16:25:29.235Z,102278.28
2023-04-17T16:27:57.167Z,102282.97
2023-04-17T16:30:25.307Z,102276.88
2023-04-17T16:32:57.417Z,102272.41
2023-04-17T16:35:25.860Z,102275.09
2023-04-17T16:37:53.823Z,102273.34
2023-04-17T16:40:26.759Z,102266.28
2023-04-17T16:42:54.730Z,102262.63
2023-04-17T16:45:22.868Z,102280.56
2023-04-17T16:47:50.846Z,102273.41
2023-04-17T16:50:25.661Z,102275.16
2023-04-17T16:52:53.837Z,102267.97
2023-04-17T16:55:21.763Z,102265.22
2023-04-17T16:57:49.566Z,102268.84
2023-04-17T17:00:18.432Z,102272.44
2023-04-17T17:02:46.373Z,102263.41
2023-04-17T17:05:15.563Z,102267.97
2023-04-17T17:07:45.195Z,102272.53
2023-04-17T17:10:13.075Z,102268.03
2023-04-17T17:12:41.032Z,102269.00
2023-04-17T17:15:09.325Z,102267.25
2023-04-17T17:17:37.396Z,102258.25
2023-04-17T17:20:06.381Z,102270.78
2023-04-17T17:22:34.307Z,102267.19
2023-04-17T17:25:04.027Z,102272.59
2023-04-17T17:27:31.823Z,102268.19
2023-04-17T17:30:00.459Z,102268.19
2023-04-17T17:32:28.751Z,102275.38
2023-04-17T17:34:58.202Z,102263.75
2023-04-17T17:37:26.891Z,102270.94
2023-04-17T17:39:55.138Z,102273.72
2023-04-17T17:42:24.375Z,102271.03
2023-04-17T17:44:52.337Z,102273.78
2023-04-17T17:47:20.145Z,102277.38
2023-04-17T17:49:49.450Z,102263.91
2023-04-17T17:52:17.827Z,102272.06
2023-04-17T17:54:45.644Z,102271.13
2023-04-17T17:57:13.377Z,102277.44
2023-04-17T17:59:42.742Z,102269.41
2023-04-17T18:02:10.881Z,102280.13
2023-04-17T18:04:38.894Z,102267.63
2023-04-17T18:07:08.003Z,102275.69
2023-04-17T18:09:35.843Z,102264.94
2023-04-17T18:12:03.957Z,102276.63
2023-04-17T18:14:31.955Z,102275.75
2023-04-17T18:17:01.167Z,102278.47
2023-04-17T18:19:29.090Z,102282.06
2023-04-17T18:21:57.181Z,102282.09
2023-04-17T18:24:25.675Z,102286.59
2023-04-17T18:26:53.422Z,102286.63
2023-04-17T18:29:21.155Z,102284.84
2023-04-17T18:31:51.132Z,102284.00
2023-04-17T18:34:23.188Z,102284.88
2023-04-17T18:36:51.111Z,102289.41
2023-04-17T18:39:22.368Z,102287.59
2023-04-17T18:41:50.647Z,102288.53
2023-04-17T18:44:24.551Z,102291.22
2023-04-17T18:47:02.839Z,102292.13
2023-04-17T18:49:32.107Z,102298.41
2023-04-17T18:52:00.089Z,102298.41
2023-04-17T18:54:27.882Z,102302.00
2023-04-17T18:56:56.432Z,102297.53
2023-04-17T18:59:26.148Z,102294.78
2023-04-17T19:01:54.529Z,102300.16
2023-04-17T19:04:22.290Z,102295.72
2023-04-17T19:06:51.483Z,102302.00
2023-04-17T19:09:29.961Z,102299.31
2023-04-17T19:12:00.154Z,102298.41
2023-04-17T19:14:28.488Z,102297.47
2023-04-17T19:16:56.485Z,102294.78
2023-04-17T19:19:24.378Z,102298.38
2023-04-17T19:21:56.502Z,102287.63
2023-04-17T19:24:24.325Z,102295.69
2023-04-17T19:26:52.120Z,102299.28
2023-04-17T19:29:20.063Z,102301.97
2023-04-17T19:31:47.844Z,102307.34
2023-04-17T19:34:15.785Z,102301.97
2023-04-17T19:36:44.179Z,102300.16
2023-04-17T19:39:13.761Z,102302.84
2023-04-17T19:41:42.268Z,102310.00
2023-04-17T19:44:11.145Z,102307.31
2023-04-17T19:46:41.260Z,102300.16
2023-04-17T19:49:09.545Z,102306.44
2023-04-17T19:51:39.383Z,102299.25
2023-04-17T19:54:07.319Z,102304.63
2023-04-17T19:56:40.343Z,102301.00
2023-04-17T19:59:12.563Z,102300.09
2023-04-17T20:01:42.866Z,102304.56
2023-04-17T20:04:11.888Z,102298.28
2023-04-17T20:06:40.977Z,102300.09
2023-04-17T20:09:08.999Z,102300.09
2023-04-17T20:11:38.544Z,102301.84
2023-04-17T20:14:06.649Z,102299.16
2023-04-17T20:16:37.462Z,102308.09
2023-04-17T20:19:05.313Z,102300.91
2023-04-17T20:21:33.280Z,102303.56
2023-04-17T20:24:01.121Z,102302.69
2023-04-17T20:26:29.123Z,102302.69
2023-04-17T20:28:58.398Z,102304.44
2023-04-17T20:31:26.244Z,102300.88
2023-04-17T20:33:54.094Z,102303.56
2023-04-17T20:36:22.077Z,102302.59
2023-04-17T20:39:26.779Z,102303.47
2023-04-17T20:41:54.995Z,102302.56
2023-04-17T20:44:24.621Z,102305.25
2023-04-17T20:46:52.420Z,102308.81
2023-04-17T20:49:20.252Z,102315.06
2023-04-17T20:51:48.018Z,102312.34
2023-04-17T20:54:15.967Z,102312.34
2023-04-17T20:56:44.358Z,102308.75
2023-04-17T20:59:12.218Z,102309.59
2023-04-17T21:01:41.433Z,102302.41
2023-04-17T21:04:11.178Z,102306.03
2023-04-17T21:06:39.058Z,102308.69
2023-04-17T21:09:08.658Z,102303.31
2023-04-17T21:11:36.434Z,102307.72
2023-04-17T21:14:04.202Z,102306.78
2023-04-17T21:16:32.315Z,102310.31
2023-04-17T21:19:01.589Z,102310.28
2023-04-17T21:21:29.358Z,102319.22
2023-04-17T21:23:57.066Z,102316.50
2023-04-17T21:26:24.777Z,102317.38
2023-04-17T21:28:52.760Z,102309.34
2023-04-17T21:31:20.621Z,102314.69
2023-04-17T21:33:48.368Z,102313.78
2023-04-17T21:36:19.333Z,102320.00
2023-04-17T21:38:47.058Z,102313.69
2023-04-17T21:41:14.831Z,102312.78
2023-04-17T21:43:42.584Z,102315.44
2023-04-17T21:46:10.830Z,102318.06
2023-04-17T21:48:38.620Z,102327.84
2023-04-17T21:51:07.012Z,102319.72
2023-04-17T21:53:37.765Z,102329.59
2023-04-17T21:56:07.173Z,102331.25
2023-04-17T21:58:35.252Z,102325.88
2023-04-17T22:01:04.182Z,102326.69
2023-04-17T22:03:32.135Z,102328.50
2023-04-17T22:06:00.030Z,102328.50
2023-04-17T22:08:27.961Z,102332.88
2023-04-17T22:10:57.104Z,102325.47
2023-04-17T22:13:24.998Z,102334.50
2023-04-17T22:15:52.765Z,102332.69
2023-04-17T22:18:21.962Z,102334.34
2023-04-17T22:20:50.144Z,102329.91
2023-04-17T22:23:17.962Z,102332.56
2023-04-17T22:25:45.779Z,102337.88
2023-04-17T22:28:14.955Z,102337.78
2023-04-17T22:30:43.165Z,102334.19
2023-04-17T22:33:10.982Z,102340.25
2023-04-17T22:35:38.708Z,102334.91
2023-04-17T22:38:06.472Z,102342.06
2023-04-17T22:40:34.862Z,102342.06
2023-04-17T22:43:02.851Z,102339.28
2023-04-17T22:45:32.015Z,102345.50
2023-04-17T22:47:59.858Z,102349.97
2023-04-17T22:50:29.681Z,102339.22
2023-04-17T22:52:57.655Z,102342.81
2023-04-17T22:55:25.464Z,102346.38
2023-04-17T22:57:53.234Z,102346.38
2023-04-17T23:00:21.100Z,102340.97
2023-04-17T23:02:50.413Z,102347.16
2023-04-17T23:05:18.499Z,102341.75
2023-04-17T23:07:46.398Z,102338.19
2023-04-17T23:10:14.234Z,102344.13
2023-04-17T23:12:42.029Z,102339.66
2023-04-17T23:15:11.234Z,102345.81
2023-04-17T23:17:39.214Z,102343.06
2023-04-17T23:20:09.374Z,102354.34
2023-04-17T23:22:37.246Z,102349.81
2023-04-17T23:25:05.600Z,102348.06
2023-04-17T23:27:33.409Z,102353.41
2023-04-17T23:30:01.230Z,102352.44
2023-04-17T23:32:29.183Z,102354.19
2023-04-17T23:34:56.884Z,102358.53
2023-04-17T23:37:26.269Z,102349.66
2023-04-17T23:39:54.152Z,102353.13
2023-04-17T23:42:22.373Z,102355.72
2023-04-17T23:44:50.148Z,102350.25
2023-04-17T23:47:22.948Z,102356.41
2023-04-17T23:49:50.728Z,102351.97
2023-04-17T23:52:19.387Z,102350.16
2023-04-17T23:54:48.625Z,102350.06
2023-04-17T23:57:16.499Z,102351.75
2023-04-17T23:59:44.334Z,102351.41
